Aérodrome :
LOGIN :

S'inscrire | Disclaimer

   EN    FR    IT 

 










Légende :    VFR   VFR Marginal   IFR   IFR Intensif   IFR Très Intensif
Visi : 
Plafond : 
>= 8 km
>= 3000ft
5 à 8 km
1000 à 3000 ft
1500m à 5 km
500 à 1000 ft
800 à 1500m
200 à 500 ft
< 800m
< 200 ft
Symboles :   Orages  Brouillard  Fortes neiges  Fortes précipitations  Vent > 20 kt
SIGMETs :   Divers  Orages  Givrage  Turbulence  Onde Orograph.  Cendres Volcan.







- Altitude de l'aérodrome : 100 ft
- Code IATA : DCI


LIED - Decimomannu Air Base

DERNIER METAR :
  • 170655Z 01001KT 9999 FEW060 13/10 Q1025 RMK FEW VIS MIN 9999 WIND THR35 33001KT WIND THR17 /////KT BLU

METARs EXPIRÉS :
  • 170555Z 31003KT 9999 FEW010 09/06 Q1024 RMK FEW VIS MIN 9999 WIND THR35 33003KT WIND THR17 /////KT BLU
  • 170455Z 33002KT 7000 FEW002 09/07 Q1024 RMK FEW VIS MIN 7000 WIND THR35 36002KT WIND THR17 /////KT WHT

TAF TAF LIED
Valide du 17 à 06h jusqu'au 17 à 15h UTC


170500Z 1706/1715 VRB03KT CAVOK
BECMG 1709/1711 15008KT 9999 FEW020
Pas de NOTAMs connus pour ce terrain.



MET'MAP, la Météo Aéronautique d'un coup d'oeil ! - Copyright ORBIFLY Décembre 2007 - Disclaimer

ORBIFLY MET'MAP TEAM :

Programmation & Développement : Alexandra Zaïnal
Conception & Développement : Baudouin d'Aumeries
Co-Programmation & Développement : Marc-Olivier Méhu
Soutien technique & logistique : Manuel Goepfert

Contact : metmap@orbifly.com




SOURCES & CREDITS :

   NOAA